sensor_id;sensor_type;location;lat;lon;timestamp;P1;durP1;ratioP1;P2;durP2;ratioP2
75941;SDS011;64622;46.220;19.878;2022-11-28T00:00:29;209.52;;;37.03;;
75941;SDS011;64622;46.220;19.878;2022-11-28T00:02:56;174.15;;;35.15;;
75941;SDS011;64622;46.220;19.878;2022-11-28T00:05:23;169.87;;;33.67;;
75941;SDS011;64622;46.220;19.878;2022-11-28T00:07:49;186.45;;;32.33;;
75941;SDS011;64622;46.220;19.878;2022-11-28T00:10:16;189.02;;;31.70;;
75941;SDS011;64622;46.220;19.878;2022-11-28T00:12:42;220.90;;;36.20;;
75941;SDS011;64622;46.220;19.878;2022-11-28T00:15:09;175.15;;;31.87;;
75941;SDS011;64622;46.220;19.878;2022-11-28T00:17:37;197.13;;;51.47;;
75941;SDS011;64622;46.220;19.878;2022-11-28T00:20:03;159.05;;;31.73;;
75941;SDS011;64622;46.220;19.878;2022-11-28T00:22:32;216.20;;;36.38;;
75941;SDS011;64622;46.220;19.878;2022-11-28T00:24:58;169.57;;;34.97;;
75941;SDS011;64622;46.220;19.878;2022-11-28T00:27:25;187.25;;;33.65;;
75941;SDS011;64622;46.220;19.878;2022-11-28T00:29:52;161.70;;;39.57;;
75941;SDS011;64622;46.220;19.878;2022-11-28T00:32:19;208.30;;;74.57;;
75941;SDS011;64622;46.220;19.878;2022-11-28T00:34:45;158.82;;;35.38;;
75941;SDS011;64622;46.220;19.878;2022-11-28T00:37:11;126.22;;;31.37;;
75941;SDS011;64622;46.220;19.878;2022-11-28T00:39:41;139.82;;;31.20;;
75941;SDS011;64622;46.220;19.878;2022-11-28T00:42:07;132.80;;;30.12;;
75941;SDS011;64622;46.220;19.878;2022-11-28T00:44:34;118.07;;;28.98;;
75941;SDS011;64622;46.220;19.878;2022-11-28T00:47:00;125.18;;;30.12;;
75941;SDS011;64622;46.220;19.878;2022-11-28T00:49:27;118.47;;;30.02;;
75941;SDS011;64622;46.220;19.878;2022-11-28T00:51:54;115.12;;;31.83;;
75941;SDS011;64622;46.220;19.878;2022-11-28T00:54:20;114.57;;;30.80;;
75941;SDS011;64622;46.220;19.878;2022-11-28T00:56:47;111.10;;;28.60;;
75941;SDS011;64622;46.220;19.878;2022-11-28T00:59:13;141.35;;;39.70;;
75941;SDS011;64622;46.220;19.878;2022-11-28T01:01:43;106.85;;;29.42;;
75941;SDS011;64622;46.220;19.878;2022-11-28T01:04:11;118.75;;;29.63;;
75941;SDS011;64622;46.220;19.878;2022-11-28T01:06:41;129.15;;;25.67;;
75941;SDS011;64622;46.220;19.878;2022-11-28T01:09:13;150.23;;;36.70;;
75941;SDS011;64622;46.220;19.878;2022-11-28T01:11:43;128.00;;;35.22;;
75941;SDS011;64622;46.220;19.878;2022-11-28T01:14:11;138.80;;;35.25;;
75941;SDS011;64622;46.220;19.878;2022-11-28T01:16:38;135.00;;;30.70;;
75941;SDS011;64622;46.220;19.878;2022-11-28T01:19:05;124.73;;;32.13;;
75941;SDS011;64622;46.220;19.878;2022-11-28T01:21:32;164.40;;;30.75;;
75941;SDS011;64622;46.220;19.878;2022-11-28T01:23:58;169.20;;;38.20;;
75941;SDS011;64622;46.220;19.878;2022-11-28T01:26:26;174.45;;;29.95;;
75941;SDS011;64622;46.220;19.878;2022-11-28T01:28:54;199.20;;;29.35;;
75941;SDS011;64622;46.220;19.878;2022-11-28T01:31:22;160.37;;;29.47;;
75941;SDS011;64622;46.220;19.878;2022-11-28T01:33:50;184.77;;;29.23;;
75941;SDS011;64622;46.220;19.878;2022-11-28T01:36:18;190.10;;;30.58;;
75941;SDS011;64622;46.220;19.878;2022-11-28T01:38:45;200.93;;;33.47;;
75941;SDS011;64622;46.220;19.878;2022-11-28T01:41:14;232.02;;;33.53;;
75941;SDS011;64622;46.220;19.878;2022-11-28T01:43:56;156.25;;;31.80;;
75941;SDS011;64622;46.220;19.878;2022-11-28T01:46:34;111.25;;;27.77;;
75941;SDS011;64622;46.220;19.878;2022-11-28T01:49:04;107.97;;;24.80;;
75941;SDS011;64622;46.220;19.878;2022-11-28T01:51:35;93.03;;;24.83;;
75941;SDS011;64622;46.220;19.878;2022-11-28T01:54:05;85.22;;;25.75;;
75941;SDS011;64622;46.220;19.878;2022-11-28T01:56:40;81.63;;;24.73;;
75941;SDS011;64622;46.220;19.878;2022-11-28T01:59:10;81.65;;;24.92;;
75941;SDS011;64622;46.220;19.878;2022-11-28T02:01:41;95.15;;;26.35;;
75941;SDS011;64622;46.220;19.878;2022-11-28T02:04:09;79.35;;;23.77;;
75941;SDS011;64622;46.220;19.878;2022-11-28T02:06:35;80.60;;;23.62;;
75941;SDS011;64622;46.220;19.878;2022-11-28T02:09:02;103.32;;;35.53;;
75941;SDS011;64622;46.220;19.878;2022-11-28T02:11:37;76.55;;;24.73;;
75941;SDS011;64622;46.220;19.878;2022-11-28T02:16:49;65.97;;;24.08;;
75941;SDS011;64622;46.220;19.878;2022-11-28T02:30:51;60.70;;;21.90;;
75941;SDS011;64622;46.220;19.878;2022-11-28T02:33:35;86.37;;;27.15;;
75941;SDS011;64622;46.220;19.878;2022-11-28T02:41:42;93.95;;;25.42;;
75941;SDS011;64622;46.220;19.878;2022-11-28T02:46:43;83.55;;;29.63;;
75941;SDS011;64622;46.220;19.878;2022-11-28T02:49:38;72.12;;;25.15;;
75941;SDS011;64622;46.220;19.878;2022-11-28T02:52:13;79.50;;;24.90;;
75941;SDS011;64622;46.220;19.878;2022-11-28T02:54:44;71.70;;;25.15;;
75941;SDS011;64622;46.220;19.878;2022-11-28T02:57:11;80.30;;;26.85;;
75941;SDS011;64622;46.220;19.878;2022-11-28T03:02:07;80.03;;;26.63;;
75941;SDS011;64622;46.220;19.878;2022-11-28T03:07:21;66.97;;;23.02;;
75941;SDS011;64622;46.220;19.878;2022-11-28T03:21:39;78.30;;;23.73;;
75941;SDS011;64622;46.220;19.878;2022-11-28T03:26:51;117.60;;;26.45;;
75941;SDS011;64622;46.220;19.878;2022-11-28T03:29:36;77.93;;;24.63;;
75941;SDS011;64622;46.220;19.878;2022-11-28T03:32:17;72.12;;;22.50;;
75941;SDS011;64622;46.220;19.878;2022-11-28T03:34:49;65.72;;;21.83;;
75941;SDS011;64622;46.220;19.878;2022-11-28T03:37:41;58.72;;;18.98;;
75941;SDS011;64622;46.220;19.878;2022-11-28T03:40:16;61.08;;;22.23;;
75941;SDS011;64622;46.220;19.878;2022-11-28T03:42:49;58.50;;;22.63;;
75941;SDS011;64622;46.220;19.878;2022-11-28T03:45:24;59.97;;;22.30;;
75941;SDS011;64622;46.220;19.878;2022-11-28T03:47:57;77.45;;;26.08;;
75941;SDS011;64622;46.220;19.878;2022-11-28T03:50:35;64.05;;;22.70;;
75941;SDS011;64622;46.220;19.878;2022-11-28T03:53:17;64.93;;;22.70;;
75941;SDS011;64622;46.220;19.878;2022-11-28T03:55:54;68.40;;;22.90;;
75941;SDS011;64622;46.220;19.878;2022-11-28T03:58:26;69.43;;;22.50;;
75941;SDS011;64622;46.220;19.878;2022-11-28T04:10:17;64.50;;;25.90;;
75941;SDS011;64622;46.220;19.878;2022-11-28T04:13:04;60.63;;;24.83;;
75941;SDS011;64622;46.220;19.878;2022-11-28T04:15:40;57.28;;;22.42;;
75941;SDS011;64622;46.220;19.878;2022-11-28T04:18:26;53.72;;;21.98;;
75941;SDS011;64622;46.220;19.878;2022-11-28T04:23:49;65.20;;;26.10;;
75941;SDS011;64622;46.220;19.878;2022-11-28T04:26:31;63.17;;;25.50;;
75941;SDS011;64622;46.220;19.878;2022-11-28T04:29:01;53.42;;;22.48;;
75941;SDS011;64622;46.220;19.878;2022-11-28T04:31:32;53.58;;;21.35;;
75941;SDS011;64622;46.220;19.878;2022-11-28T04:34:03;60.88;;;26.60;;
75941;SDS011;64622;46.220;19.878;2022-11-28T04:36:33;60.78;;;24.95;;
75941;SDS011;64622;46.220;19.878;2022-11-28T04:39:02;56.97;;;23.15;;
75941;SDS011;64622;46.220;19.878;2022-11-28T04:42:34;57.40;;;22.77;;
75941;SDS011;64622;46.220;19.878;2022-11-28T04:47:12;54.15;;;21.00;;
75941;SDS011;64622;46.220;19.878;2022-11-28T04:49:40;55.90;;;23.80;;
75941;SDS011;64622;46.220;19.878;2022-11-28T04:52:19;163.87;;;114.28;;
75941;SDS011;64622;46.220;19.878;2022-11-28T04:54:56;71.07;;;29.65;;
75941;SDS011;64622;46.220;19.878;2022-11-28T04:57:29;64.18;;;26.52;;
75941;SDS011;64622;46.220;19.878;2022-11-28T05:00:04;74.68;;;29.77;;
75941;SDS011;64622;46.220;19.878;2022-11-28T05:02:34;72.07;;;32.03;;
75941;SDS011;64622;46.220;19.878;2022-11-28T05:05:06;57.67;;;23.00;;
75941;SDS011;64622;46.220;19.878;2022-11-28T05:07:36;62.13;;;24.48;;
75941;SDS011;64622;46.220;19.878;2022-11-28T05:10:05;61.10;;;24.33;;
75941;SDS011;64622;46.220;19.878;2022-11-28T05:12:32;58.05;;;23.77;;
75941;SDS011;64622;46.220;19.878;2022-11-28T05:14:58;72.13;;;35.97;;
75941;SDS011;64622;46.220;19.878;2022-11-28T05:17:25;69.22;;;26.50;;
75941;SDS011;64622;46.220;19.878;2022-11-28T05:19:52;59.25;;;22.83;;
75941;SDS011;64622;46.220;19.878;2022-11-28T05:22:18;56.47;;;22.33;;
75941;SDS011;64622;46.220;19.878;2022-11-28T05:24:45;50.95;;;18.15;;
75941;SDS011;64622;46.220;19.878;2022-11-28T05:27:11;51.50;;;19.42;;
75941;SDS011;64622;46.220;19.878;2022-11-28T05:29:37;57.53;;;22.15;;
75941;SDS011;64622;46.220;19.878;2022-11-28T05:32:11;53.03;;;17.95;;
75941;SDS011;64622;46.220;19.878;2022-11-28T05:34:38;50.55;;;19.80;;
75941;SDS011;64622;46.220;19.878;2022-11-28T05:37:05;203.57;;;108.57;;
75941;SDS011;64622;46.220;19.878;2022-11-28T05:39:32;56.47;;;21.42;;
75941;SDS011;64622;46.220;19.878;2022-11-28T05:41:59;52.67;;;18.80;;
75941;SDS011;64622;46.220;19.878;2022-11-28T05:44:25;55.72;;;22.33;;
75941;SDS011;64622;46.220;19.878;2022-11-28T05:46:52;52.55;;;20.35;;
75941;SDS011;64622;46.220;19.878;2022-11-28T05:49:18;54.90;;;20.65;;
75941;SDS011;64622;46.220;19.878;2022-11-28T05:51:47;55.53;;;23.08;;
75941;SDS011;64622;46.220;19.878;2022-11-28T05:54:14;46.40;;;17.10;;
75941;SDS011;64622;46.220;19.878;2022-11-28T05:56:40;31.58;;;14.70;;
75941;SDS011;64622;46.220;19.878;2022-11-28T05:59:07;32.83;;;11.88;;
75941;SDS011;64622;46.220;19.878;2022-11-28T06:01:33;52.75;;;23.02;;
75941;SDS011;64622;46.220;19.878;2022-11-28T06:04:00;43.60;;;16.90;;
75941;SDS011;64622;46.220;19.878;2022-11-28T06:06:28;53.83;;;21.50;;
75941;SDS011;64622;46.220;19.878;2022-11-28T06:08:56;54.85;;;21.90;;
75941;SDS011;64622;46.220;19.878;2022-11-28T06:11:25;60.35;;;23.83;;
75941;SDS011;64622;46.220;19.878;2022-11-28T06:13:53;57.20;;;23.58;;
75941;SDS011;64622;46.220;19.878;2022-11-28T06:16:20;35.70;;;12.67;;
75941;SDS011;64622;46.220;19.878;2022-11-28T06:18:57;43.17;;;17.85;;
75941;SDS011;64622;46.220;19.878;2022-11-28T06:21:29;30.83;;;11.35;;
75941;SDS011;64622;46.220;19.878;2022-11-28T06:23:57;32.38;;;13.32;;
75941;SDS011;64622;46.220;19.878;2022-11-28T06:26:25;37.78;;;15.00;;
75941;SDS011;64622;46.220;19.878;2022-11-28T06:28:53;50.20;;;20.40;;
75941;SDS011;64622;46.220;19.878;2022-11-28T06:31:21;43.58;;;18.80;;
75941;SDS011;64622;46.220;19.878;2022-11-28T06:33:50;54.63;;;20.48;;
75941;SDS011;64622;46.220;19.878;2022-11-28T06:36:17;59.05;;;23.25;;
75941;SDS011;64622;46.220;19.878;2022-11-28T06:38:45;60.25;;;25.12;;
75941;SDS011;64622;46.220;19.878;2022-11-28T06:41:13;63.00;;;22.55;;
75941;SDS011;64622;46.220;19.878;2022-11-28T06:43:41;46.80;;;17.60;;
75941;SDS011;64622;46.220;19.878;2022-11-28T06:46:12;68.95;;;27.00;;
75941;SDS011;64622;46.220;19.878;2022-11-28T06:48:41;52.95;;;19.98;;
75941;SDS011;64622;46.220;19.878;2022-11-28T06:51:09;58.00;;;28.00;;
75941;SDS011;64622;46.220;19.878;2022-11-28T06:53:35;42.47;;;16.20;;
75941;SDS011;64622;46.220;19.878;2022-11-28T06:56:03;36.90;;;15.23;;
75941;SDS011;64622;46.220;19.878;2022-11-28T06:58:34;49.67;;;20.92;;
75941;SDS011;64622;46.220;19.878;2022-11-28T07:01:09;42.05;;;16.10;;
75941;SDS011;64622;46.220;19.878;2022-11-28T07:03:39;52.08;;;20.45;;
75941;SDS011;64622;46.220;19.878;2022-11-28T07:06:07;51.92;;;19.73;;
75941;SDS011;64622;46.220;19.878;2022-11-28T07:08:34;56.63;;;23.02;;
75941;SDS011;64622;46.220;19.878;2022-11-28T07:11:15;55.83;;;21.62;;
75941;SDS011;64622;46.220;19.878;2022-11-28T07:13:47;49.75;;;18.75;;
75941;SDS011;64622;46.220;19.878;2022-11-28T07:16:16;54.83;;;21.40;;
75941;SDS011;64622;46.220;19.878;2022-11-28T07:18:54;61.07;;;20.70;;
75941;SDS011;64622;46.220;19.878;2022-11-28T07:21:22;53.22;;;21.10;;
75941;SDS011;64622;46.220;19.878;2022-11-28T07:23:49;50.70;;;21.60;;
75941;SDS011;64622;46.220;19.878;2022-11-28T07:26:17;53.70;;;22.37;;
75941;SDS011;64622;46.220;19.878;2022-11-28T07:28:47;42.25;;;16.65;;
75941;SDS011;64622;46.220;19.878;2022-11-28T07:31:15;48.13;;;20.02;;
75941;SDS011;64622;46.220;19.878;2022-11-28T07:33:44;46.83;;;18.55;;
75941;SDS011;64622;46.220;19.878;2022-11-28T07:36:13;50.30;;;22.00;;
75941;SDS011;64622;46.220;19.878;2022-11-28T07:38:41;54.50;;;22.67;;
75941;SDS011;64622;46.220;19.878;2022-11-28T07:41:09;50.50;;;22.15;;
75941;SDS011;64622;46.220;19.878;2022-11-28T07:43:38;116.03;;;69.33;;
75941;SDS011;64622;46.220;19.878;2022-11-28T07:46:06;53.85;;;23.67;;
75941;SDS011;64622;46.220;19.878;2022-11-28T07:48:34;57.78;;;24.92;;
75941;SDS011;64622;46.220;19.878;2022-11-28T07:51:06;130.65;;;54.50;;
75941;SDS011;64622;46.220;19.878;2022-11-28T07:53:35;67.80;;;28.15;;
75941;SDS011;64622;46.220;19.878;2022-11-28T07:56:03;309.53;;;149.13;;
75941;SDS011;64622;46.220;19.878;2022-11-28T07:58:32;54.83;;;22.45;;
75941;SDS011;64622;46.220;19.878;2022-11-28T08:01:06;55.12;;;24.75;;
75941;SDS011;64622;46.220;19.878;2022-11-28T08:03:41;163.37;;;81.00;;
75941;SDS011;64622;46.220;19.878;2022-11-28T08:06:09;53.90;;;21.50;;
75941;SDS011;64622;46.220;19.878;2022-11-28T08:08:37;60.80;;;25.53;;
75941;SDS011;64622;46.220;19.878;2022-11-28T08:11:05;80.68;;;35.95;;
75941;SDS011;64622;46.220;19.878;2022-11-28T08:13:34;54.17;;;22.70;;
75941;SDS011;64622;46.220;19.878;2022-11-28T08:16:12;52.22;;;22.37;;
75941;SDS011;64622;46.220;19.878;2022-11-28T08:18:41;49.22;;;21.00;;
75941;SDS011;64622;46.220;19.878;2022-11-28T08:23:38;54.17;;;22.45;;
75941;SDS011;64622;46.220;19.878;2022-11-28T08:26:07;51.72;;;22.20;;
75941;SDS011;64622;46.220;19.878;2022-11-28T08:28:35;47.62;;;20.60;;
75941;SDS011;64622;46.220;19.878;2022-11-28T08:31:11;51.83;;;21.73;;
75941;SDS011;64622;46.220;19.878;2022-11-28T08:33:43;49.57;;;20.67;;
75941;SDS011;64622;46.220;19.878;2022-11-28T08:36:11;92.22;;;40.58;;
75941;SDS011;64622;46.220;19.878;2022-11-28T08:38:40;53.92;;;24.73;;
75941;SDS011;64622;46.220;19.878;2022-11-28T08:41:09;46.78;;;20.27;;
75941;SDS011;64622;46.220;19.878;2022-11-28T08:43:38;52.35;;;22.67;;
75941;SDS011;64622;46.220;19.878;2022-11-28T08:46:15;54.97;;;23.00;;
75941;SDS011;64622;46.220;19.878;2022-11-28T08:48:44;60.22;;;25.20;;
75941;SDS011;64622;46.220;19.878;2022-11-28T08:51:12;55.70;;;23.45;;
75941;SDS011;64622;46.220;19.878;2022-11-28T08:53:39;49.92;;;20.60;;
75941;SDS011;64622;46.220;19.878;2022-11-28T08:56:07;51.53;;;22.02;;
75941;SDS011;64622;46.220;19.878;2022-11-28T08:58:33;125.63;;;47.10;;
75941;SDS011;64622;46.220;19.878;2022-11-28T09:01:00;60.00;;;26.50;;
75941;SDS011;64622;46.220;19.878;2022-11-28T09:03:27;53.63;;;22.05;;
75941;SDS011;64622;46.220;19.878;2022-11-28T09:05:58;50.97;;;22.50;;
75941;SDS011;64622;46.220;19.878;2022-11-28T09:08:27;50.78;;;21.70;;
75941;SDS011;64622;46.220;19.878;2022-11-28T09:10:53;42.80;;;19.07;;
75941;SDS011;64622;46.220;19.878;2022-11-28T09:13:20;48.03;;;21.15;;
75941;SDS011;64622;46.220;19.878;2022-11-28T09:15:47;50.75;;;22.48;;
75941;SDS011;64622;46.220;19.878;2022-11-28T09:18:13;46.97;;;20.33;;
75941;SDS011;64622;46.220;19.878;2022-11-28T09:20:42;51.15;;;22.17;;
75941;SDS011;64622;46.220;19.878;2022-11-28T09:23:09;146.50;;;70.20;;
75941;SDS011;64622;46.220;19.878;2022-11-28T09:25:36;73.50;;;31.92;;
75941;SDS011;64622;46.220;19.878;2022-11-28T09:28:04;52.70;;;22.95;;
75941;SDS011;64622;46.220;19.878;2022-11-28T09:30:32;67.97;;;30.05;;
75941;SDS011;64622;46.220;19.878;2022-11-28T09:32:59;75.82;;;32.22;;
75941;SDS011;64622;46.220;19.878;2022-11-28T09:35:25;50.37;;;20.83;;
75941;SDS011;64622;46.220;19.878;2022-11-28T09:37:52;44.78;;;19.60;;
75941;SDS011;64622;46.220;19.878;2022-11-28T09:40:21;56.35;;;25.48;;
75941;SDS011;64622;46.220;19.878;2022-11-28T09:43:00;50.45;;;22.62;;
75941;SDS011;64622;46.220;19.878;2022-11-28T09:45:29;43.75;;;21.37;;
75941;SDS011;64622;46.220;19.878;2022-11-28T09:48:02;42.03;;;20.30;;
75941;SDS011;64622;46.220;19.878;2022-11-28T09:50:46;39.17;;;17.00;;
75941;SDS011;64622;46.220;19.878;2022-11-28T09:53:23;38.17;;;17.90;;
75941;SDS011;64622;46.220;19.878;2022-11-28T09:55:59;43.40;;;19.10;;
75941;SDS011;64622;46.220;19.878;2022-11-28T09:58:37;40.22;;;18.50;;
75941;SDS011;64622;46.220;19.878;2022-11-28T10:03:55;41.40;;;19.70;;
75941;SDS011;64622;46.220;19.878;2022-11-28T10:17:44;35.13;;;15.82;;
75941;SDS011;64622;46.220;19.878;2022-11-28T10:20:27;37.15;;;17.17;;
75941;SDS011;64622;46.220;19.878;2022-11-28T10:23:17;37.47;;;18.15;;
75941;SDS011;64622;46.220;19.878;2022-11-28T10:28:28;38.33;;;17.93;;
75941;SDS011;64622;46.220;19.878;2022-11-28T10:31:01;39.72;;;18.17;;
75941;SDS011;64622;46.220;19.878;2022-11-28T10:33:35;33.92;;;15.45;;
75941;SDS011;64622;46.220;19.878;2022-11-28T10:36:08;31.62;;;14.25;;
75941;SDS011;64622;46.220;19.878;2022-11-28T10:38:43;31.77;;;16.15;;
75941;SDS011;64622;46.220;19.878;2022-11-28T10:41:11;31.97;;;14.43;;
75941;SDS011;64622;46.220;19.878;2022-11-28T10:52:05;36.88;;;16.08;;
75941;SDS011;64622;46.220;19.878;2022-11-28T10:54:52;36.97;;;15.93;;
75941;SDS011;64622;46.220;19.878;2022-11-28T10:57:39;39.65;;;18.30;;
75941;SDS011;64622;46.220;19.878;2022-11-28T11:00:15;35.85;;;16.45;;
75941;SDS011;64622;46.220;19.878;2022-11-28T11:02:49;41.63;;;17.87;;
75941;SDS011;64622;46.220;19.878;2022-11-28T11:05:27;31.20;;;14.57;;
75941;SDS011;64622;46.220;19.878;2022-11-28T11:10:51;39.97;;;17.73;;
75941;SDS011;64622;46.220;19.878;2022-11-28T11:13:22;37.45;;;16.65;;
75941;SDS011;64622;46.220;19.878;2022-11-28T11:16:06;34.28;;;14.70;;
75941;SDS011;64622;46.220;19.878;2022-11-28T11:18:57;32.00;;;11.50;;
75941;SDS011;64622;46.220;19.878;2022-11-28T11:21:24;24.00;;;12.30;;
75941;SDS011;64622;46.220;19.878;2022-11-28T11:26:43;32.35;;;15.60;;
75941;SDS011;64622;46.220;19.878;2022-11-28T11:29:23;26.33;;;11.93;;
75941;SDS011;64622;46.220;19.878;2022-11-28T11:32:03;24.90;;;12.45;;
75941;SDS011;64622;46.220;19.878;2022-11-28T11:34:41;24.90;;;11.10;;
75941;SDS011;64622;46.220;19.878;2022-11-28T11:37:19;29.48;;;14.48;;
75941;SDS011;64622;46.220;19.878;2022-11-28T11:40:01;28.98;;;13.30;;
75941;SDS011;64622;46.220;19.878;2022-11-28T11:42:42;25.12;;;12.30;;
75941;SDS011;64622;46.220;19.878;2022-11-28T11:45:27;30.65;;;13.70;;
75941;SDS011;64622;46.220;19.878;2022-11-28T11:47:59;29.70;;;13.67;;
75941;SDS011;64622;46.220;19.878;2022-11-28T11:50:28;30.37;;;12.82;;
75941;SDS011;64622;46.220;19.878;2022-11-28T11:55:53;32.92;;;13.57;;
75941;SDS011;64622;46.220;19.878;2022-11-28T11:58:44;27.10;;;11.98;;
75941;SDS011;64622;46.220;19.878;2022-11-28T12:01:15;37.53;;;18.73;;
75941;SDS011;64622;46.220;19.878;2022-11-28T12:06:33;28.77;;;13.90;;
75941;SDS011;64622;46.220;19.878;2022-11-28T12:12:15;31.20;;;13.20;;
75941;SDS011;64622;46.220;19.878;2022-11-28T12:14:48;33.63;;;14.60;;
75941;SDS011;64622;46.220;19.878;2022-11-28T12:26:00;20.60;;;8.73;;
75941;SDS011;64622;46.220;19.878;2022-11-28T12:29:02;30.60;;;13.57;;
75941;SDS011;64622;46.220;19.878;2022-11-28T12:34:25;29.75;;;13.70;;
75941;SDS011;64622;46.220;19.878;2022-11-28T12:39:55;29.08;;;12.95;;
75941;SDS011;64622;46.220;19.878;2022-11-28T12:56:05;21.53;;;9.97;;
75941;SDS011;64622;46.220;19.878;2022-11-28T12:58:45;28.33;;;12.57;;
75941;SDS011;64622;46.220;19.878;2022-11-28T13:10:32;18.70;;;8.47;;
75941;SDS011;64622;46.220;19.878;2022-11-28T13:12:50;24.75;;;11.85;;
75941;SDS011;64622;46.220;19.878;2022-11-28T13:18:53;27.80;;;13.70;;
75941;SDS011;64622;46.220;19.878;2022-11-28T13:21:10;25.17;;;12.63;;
75941;SDS011;64622;46.220;19.878;2022-11-28T13:24:21;34.30;;;15.50;;
75941;SDS011;64622;46.220;19.878;2022-11-28T13:32:23;23.50;;;10.27;;
75941;SDS011;64622;46.220;19.878;2022-11-28T13:34:57;25.02;;;12.80;;
75941;SDS011;64622;46.220;19.878;2022-11-28T13:37:36;29.83;;;14.80;;
75941;SDS011;64622;46.220;19.878;2022-11-28T13:43:21;26.37;;;13.32;;
75941;SDS011;64622;46.220;19.878;2022-11-28T13:45:55;25.20;;;9.88;;
75941;SDS011;64622;46.220;19.878;2022-11-28T13:53:38;30.92;;;15.07;;
75941;SDS011;64622;46.220;19.878;2022-11-28T13:58:32;25.60;;;12.60;;
75941;SDS011;64622;46.220;19.878;2022-11-28T14:01:11;23.73;;;12.20;;
75941;SDS011;64622;46.220;19.878;2022-11-28T14:03:46;17.47;;;8.77;;
75941;SDS011;64622;46.220;19.878;2022-11-28T14:06:58;23.27;;;11.30;;
75941;SDS011;64622;46.220;19.878;2022-11-28T14:09:06;35.05;;;15.68;;
75941;SDS011;64622;46.220;19.878;2022-11-28T14:25:27;32.25;;;15.73;;
75941;SDS011;64622;46.220;19.878;2022-11-28T14:27:58;40.38;;;17.90;;
75941;SDS011;64622;46.220;19.878;2022-11-28T14:30:32;38.40;;;19.83;;
75941;SDS011;64622;46.220;19.878;2022-11-28T14:33:02;38.97;;;19.65;;
75941;SDS011;64622;46.220;19.878;2022-11-28T14:41:01;16.95;;;8.20;;
75941;SDS011;64622;46.220;19.878;2022-11-28T14:46:19;25.37;;;11.65;;
75941;SDS011;64622;46.220;19.878;2022-11-28T14:56:57;25.33;;;10.83;;
75941;SDS011;64622;46.220;19.878;2022-11-28T14:59:26;33.15;;;13.70;;
75941;SDS011;64622;46.220;19.878;2022-11-28T15:07:23;64.55;;;27.27;;
75941;SDS011;64622;46.220;19.878;2022-11-28T15:10:05;67.77;;;29.73;;
75941;SDS011;64622;46.220;19.878;2022-11-28T15:13:02;73.07;;;34.53;;
75941;SDS011;64622;46.220;19.878;2022-11-28T15:15:50;83.28;;;42.35;;
75941;SDS011;64622;46.220;19.878;2022-11-28T15:18:18;117.60;;;58.47;;
75941;SDS011;64622;46.220;19.878;2022-11-28T15:20:49;85.47;;;48.58;;
75941;SDS011;64622;46.220;19.878;2022-11-28T15:23:24;67.35;;;38.45;;
75941;SDS011;64622;46.220;19.878;2022-11-28T15:25:55;39.30;;;20.33;;
75941;SDS011;64622;46.220;19.878;2022-11-28T15:28:23;37.30;;;18.48;;
75941;SDS011;64622;46.220;19.878;2022-11-28T15:30:55;55.40;;;26.15;;
75941;SDS011;64622;46.220;19.878;2022-11-28T15:33:24;91.03;;;38.33;;
75941;SDS011;64622;46.220;19.878;2022-11-28T15:38:41;77.45;;;36.78;;
75941;SDS011;64622;46.220;19.878;2022-11-28T15:41:09;82.22;;;37.38;;
75941;SDS011;64622;46.220;19.878;2022-11-28T15:43:36;94.05;;;47.13;;
75941;SDS011;64622;46.220;19.878;2022-11-28T15:46:03;86.87;;;41.78;;
75941;SDS011;64622;46.220;19.878;2022-11-28T15:48:35;91.28;;;44.20;;
75941;SDS011;64622;46.220;19.878;2022-11-28T15:51:04;91.70;;;43.08;;
75941;SDS011;64622;46.220;19.878;2022-11-28T15:53:32;108.57;;;48.80;;
75941;SDS011;64622;46.220;19.878;2022-11-28T15:58:42;120.15;;;55.25;;
75941;SDS011;64622;46.220;19.878;2022-11-28T16:01:17;109.82;;;49.65;;
75941;SDS011;64622;46.220;19.878;2022-11-28T16:06:14;139.37;;;63.70;;
75941;SDS011;64622;46.220;19.878;2022-11-28T16:08:47;150.60;;;65.47;;
75941;SDS011;64622;46.220;19.878;2022-11-28T16:11:17;129.40;;;60.05;;
75941;SDS011;64622;46.220;19.878;2022-11-28T16:13:46;108.78;;;46.80;;
75941;SDS011;64622;46.220;19.878;2022-11-28T16:16:20;132.10;;;56.97;;
75941;SDS011;64622;46.220;19.878;2022-11-28T16:18:58;133.68;;;56.05;;
75941;SDS011;64622;46.220;19.878;2022-11-28T16:21:27;133.30;;;55.17;;
75941;SDS011;64622;46.220;19.878;2022-11-28T16:23:57;115.40;;;46.22;;
75941;SDS011;64622;46.220;19.878;2022-11-28T16:31:33;258.52;;;95.03;;
75941;SDS011;64622;46.220;19.878;2022-11-28T16:34:01;168.57;;;62.55;;
75941;SDS011;64622;46.220;19.878;2022-11-28T16:41:38;336.02;;;120.80;;
75941;SDS011;64622;46.220;19.878;2022-11-28T16:44:11;167.35;;;67.10;;
75941;SDS011;64622;46.220;19.878;2022-11-28T16:46:51;70.10;;;31.80;;
75941;SDS011;64622;46.220;19.878;2022-11-28T16:54:53;241.60;;;93.82;;
75941;SDS011;64622;46.220;19.878;2022-11-28T16:57:21;126.85;;;50.15;;
75941;SDS011;64622;46.220;19.878;2022-11-28T16:59:48;122.80;;;52.08;;
75941;SDS011;64622;46.220;19.878;2022-11-28T17:02:19;102.85;;;46.50;;
75941;SDS011;64622;46.220;19.878;2022-11-28T17:04:48;143.30;;;68.72;;
75941;SDS011;64622;46.220;19.878;2022-11-28T17:07:18;80.80;;;37.05;;
75941;SDS011;64622;46.220;19.878;2022-11-28T17:09:46;75.75;;;33.40;;
75941;SDS011;64622;46.220;19.878;2022-11-28T17:12:24;85.53;;;37.83;;
75941;SDS011;64622;46.220;19.878;2022-11-28T17:14:52;70.15;;;32.67;;
75941;SDS011;64622;46.220;19.878;2022-11-28T17:17:20;101.30;;;43.70;;
75941;SDS011;64622;46.220;19.878;2022-11-28T17:19:51;100.38;;;46.10;;
75941;SDS011;64622;46.220;19.878;2022-11-28T17:22:25;75.65;;;34.15;;
75941;SDS011;64622;46.220;19.878;2022-11-28T17:25:00;146.07;;;59.28;;
75941;SDS011;64622;46.220;19.878;2022-11-28T17:27:27;66.07;;;26.23;;
75941;SDS011;64622;46.220;19.878;2022-11-28T17:29:53;142.57;;;59.28;;
75941;SDS011;64622;46.220;19.878;2022-11-28T17:32:20;65.68;;;29.55;;
75941;SDS011;64622;46.220;19.878;2022-11-28T17:34:47;136.25;;;55.97;;
75941;SDS011;64622;46.220;19.878;2022-11-28T17:37:14;43.75;;;19.85;;
75941;SDS011;64622;46.220;19.878;2022-11-28T17:39:42;107.35;;;44.22;;
75941;SDS011;64622;46.220;19.878;2022-11-28T17:42:28;96.37;;;35.55;;
75941;SDS011;64622;46.220;19.878;2022-11-28T17:44:56;87.68;;;32.10;;
75941;SDS011;64622;46.220;19.878;2022-11-28T17:47:22;62.33;;;22.92;;
75941;SDS011;64622;46.220;19.878;2022-11-28T17:49:49;43.87;;;20.77;;
75941;SDS011;64622;46.220;19.878;2022-11-28T17:52:16;76.78;;;29.05;;
75941;SDS011;64622;46.220;19.878;2022-11-28T17:54:45;75.32;;;31.65;;
75941;SDS011;64622;46.220;19.878;2022-11-28T17:57:12;35.40;;;16.17;;
75941;SDS011;64622;46.220;19.878;2022-11-28T17:59:39;63.22;;;26.42;;
75941;SDS011;64622;46.220;19.878;2022-11-28T18:02:05;108.15;;;45.63;;
75941;SDS011;64622;46.220;19.878;2022-11-28T18:04:33;72.55;;;31.83;;